Time;durP1;ratioP1;P1;durP2;ratioP2;P2;SDS_P1;SDS_P2;PMS_P1;PMS_P2;Temp;Humidity;BMP_temperature;BMP_pressure;BME280_temperature;BME280_humidity;BME280_pressure;Samples;Min_cycle;Max_cycle;Signal;HPM_P1;HPM_P2
2023/09/27 00:00:10;;;;;;;45.67;36.07;;;;;;;;;;5050605;28;20095;-61
2023/09/27 00:02:39;;;;;;;49.23;39.23;;;;;;;;;;5049880;28;20053;-61
2023/09/27 00:05:07;;;;;;;44.27;35.70;;;;;;;;;;5057077;28;20040;-61
2023/09/27 00:07:36;;;;;;;45.63;36.63;;;;;;;;;;5070445;28;20070;-61
2023/09/27 00:10:03;;;;;;;54.00;42.33;;;;;;;;;;5070332;28;20045;-61
2023/09/27 00:12:28;;;;;;;51.87;39.03;;;;;;;;;;5069788;28;20470;-61
2023/09/27 00:14:55;;;;;;;47.17;38.23;;;;;;;;;;5068972;28;20136;-61
2023/09/27 00:17:22;;;;;;;48.10;38.83;;;;;;;;;;5069396;28;20501;-62
2023/09/27 00:19:48;;;;;;;51.50;38.53;;;;;;;;;;5069980;28;20048;-61
2023/09/27 00:22:14;;;;;;;47.43;37.43;;;;;;;;;;5069827;28;20056;-61
2023/09/27 00:24:40;;;;;;;46.10;38.17;;;;;;;;;;5067579;28;20051;-61
2023/09/27 00:27:07;;;;;;;47.37;36.67;;;;;;;;;;5069957;28;20051;-61
2023/09/27 00:29:34;;;;;;;53.70;39.33;;;;;;;;;;5068945;28;20067;-62
2023/09/27 00:32:00;;;;;;;51.50;39.57;;;;;;;;;;5069797;28;20090;-61
2023/09/27 00:34:26;;;;;;;51.30;39.47;;;;;;;;;;5069419;28;20048;-61
2023/09/27 00:36:52;;;;;;;50.43;39.60;;;;;;;;;;5069464;28;20052;-61
2023/09/27 00:39:18;;;;;;;55.70;41.47;;;;;;;;;;5069323;28;20287;-61
2023/09/27 00:41:44;;;;;;;60.13;43.13;;;;;;;;;;5069180;28;20452;-61
2023/09/27 00:44:10;;;;;;;51.17;38.87;;;;;;;;;;5069349;28;20036;-61
2023/09/27 00:46:36;;;;;;;45.40;36.57;;;;;;;;;;5069263;28;20127;-61
2023/09/27 00:49:03;;;;;;;53.17;41.50;;;;;;;;;;5063425;28;20419;-61
2023/09/27 00:51:29;;;;;;;51.03;41.17;;;;;;;;;;5049533;28;20067;-61
2023/09/27 00:53:56;;;;;;;54.97;42.13;;;;;;;;;;5048863;28;20064;-61
2023/09/27 00:56:22;;;;;;;57.77;43.13;;;;;;;;;;5062293;28;20127;-61
2023/09/27 00:58:49;;;;;;;56.63;42.97;;;;;;;;;;5069206;28;20143;-61
2023/09/27 01:01:15;;;;;;;52.43;41.17;;;;;;;;;;5069399;28;20048;-61
2023/09/27 01:03:41;;;;;;;58.80;43.90;;;;;;;;;;5068151;28;20867;-61
2023/09/27 01:06:08;;;;;;;53.00;40.57;;;;;;;;;;5068047;28;20076;-61
2023/09/27 01:08:34;;;;;;;65.43;44.83;;;;;;;;;;5067232;28;20545;-61
2023/09/27 01:11:00;;;;;;;65.50;43.90;;;;;;;;;;5068982;28;20473;-61
2023/09/27 01:13:26;;;;;;;65.67;45.23;;;;;;;;;;5066575;28;20124;-61
2023/09/27 01:15:52;;;;;;;53.83;41.13;;;;;;;;;;5068830;28;20048;-61
2023/09/27 01:18:18;;;;;;;56.57;42.00;;;;;;;;;;5068910;28;20048;-61
2023/09/27 01:20:44;;;;;;;47.77;37.10;;;;;;;;;;5068227;28;20048;-61
2023/09/27 01:23:10;;;;;;;45.63;37.33;;;;;;;;;;5068789;28;20075;-61
2023/09/27 01:25:37;;;;;;;53.57;43.53;;;;;;;;;;5068097;28;20083;-61
2023/09/27 01:28:05;;;;;;;66.47;47.20;;;;;;;;;;5068442;28;20135;-61
2023/09/27 01:30:34;;;;;;;64.57;44.03;;;;;;;;;;5068694;28;20049;-61
2023/09/27 01:33:05;;;;;;;51.53;38.70;;;;;;;;;;5060201;28;20137;-61
2023/09/27 01:35:32;;;;;;;65.60;47.03;;;;;;;;;;5047785;28;20045;-61
2023/09/27 01:37:57;;;;;;;66.30;46.97;;;;;;;;;;5061388;28;20140;-61
2023/09/27 01:40:27;;;;;;;51.37;39.50;;;;;;;;;;5068568;28;20142;-61
2023/09/27 01:42:53;;;;;;;55.13;42.20;;;;;;;;;;5063696;28;20052;-61
2023/09/27 01:45:19;;;;;;;63.30;43.43;;;;;;;;;;5048662;28;20049;-61
2023/09/27 01:47:45;;;;;;;55.67;42.70;;;;;;;;;;5047609;28;20126;-61
2023/09/27 01:50:12;;;;;;;62.17;46.37;;;;;;;;;;5048616;28;20135;-61
2023/09/27 01:52:38;;;;;;;58.57;43.47;;;;;;;;;;5051899;28;20044;-61
2023/09/27 01:55:04;;;;;;;75.43;51.67;;;;;;;;;;5051911;28;20040;-61
2023/09/27 01:57:30;;;;;;;64.90;46.17;;;;;;;;;;5048282;28;20053;-61
2023/09/27 01:59:57;;;;;;;65.77;44.87;;;;;;;;;;5047870;28;20419;-61
2023/09/27 02:02:23;;;;;;;56.73;41.27;;;;;;;;;;5047876;28;20048;-64
2023/09/27 02:04:49;;;;;;;62.93;44.13;;;;;;;;;;5048298;28;20120;-61
2023/09/27 02:07:15;;;;;;;66.00;45.93;;;;;;;;;;5048455;28;20127;-61
2023/09/27 02:09:41;;;;;;;72.10;50.10;;;;;;;;;;5048376;28;20048;-61
2023/09/27 02:12:07;;;;;;;73.43;50.53;;;;;;;;;;5047723;28;20518;-62
2023/09/27 02:14:33;;;;;;;72.50;48.77;;;;;;;;;;5066830;28;20071;-61
2023/09/27 02:16:59;;;;;;;65.40;48.67;;;;;;;;;;5068330;28;20564;-61
2023/09/27 02:19:25;;;;;;;65.47;45.90;;;;;;;;;;5067756;28;20044;-61
2023/09/27 02:21:51;;;;;;;68.30;47.27;;;;;;;;;;5067724;28;20481;-61
2023/09/27 02:24:17;;;;;;;78.10;49.33;;;;;;;;;;5067200;28;20094;-61
2023/09/27 02:26:43;;;;;;;73.53;47.73;;;;;;;;;;5067839;28;20048;-61
2023/09/27 02:29:09;;;;;;;75.50;49.00;;;;;;;;;;5068280;28;20509;-61
2023/09/27 02:31:35;;;;;;;78.03;51.53;;;;;;;;;;5067744;28;20052;-61
2023/09/27 02:34:01;;;;;;;63.53;43.00;;;;;;;;;;5067060;28;20509;-61
2023/09/27 02:36:27;;;;;;;73.57;49.40;;;;;;;;;;5067955;28;20037;-61
2023/09/27 02:38:53;;;;;;;60.43;39.53;;;;;;;;;;5071870;28;20052;-61
2023/09/27 02:41:19;;;;;;;76.50;46.43;;;;;;;;;;5072085;28;20048;-61
2023/09/27 02:43:45;;;;;;;76.83;47.30;;;;;;;;;;5061808;28;20138;-61
2023/09/27 02:46:11;;;;;;;75.47;48.33;;;;;;;;;;5061975;28;20057;-61
2023/09/27 02:48:37;;;;;;;75.30;50.40;;;;;;;;;;5071297;28;20040;-61
2023/09/27 02:51:03;;;;;;;86.67;55.70;;;;;;;;;;5071994;28;20376;-61
2023/09/27 02:53:29;;;;;;;83.00;54.70;;;;;;;;;;5070632;28;20048;-61
2023/09/27 02:55:55;;;;;;;75.13;52.03;;;;;;;;;;5071696;28;20044;-61
2023/09/27 02:58:22;;;;;;;74.43;53.37;;;;;;;;;;5071839;28;20044;-61
2023/09/27 03:00:48;;;;;;;81.37;54.43;;;;;;;;;;5071093;28;20048;-61
2023/09/27 03:03:14;;;;;;;73.93;51.17;;;;;;;;;;5067771;28;20517;-61
2023/09/27 03:05:40;;;;;;;75.53;52.03;;;;;;;;;;5051602;28;20392;-61
2023/09/27 03:08:07;;;;;;;80.83;52.47;;;;;;;;;;5051447;28;20581;-61
2023/09/27 03:10:37;;;;;;;82.27;54.27;;;;;;;;;;5050479;28;20515;-61
2023/09/27 03:13:04;;;;;;;101.60;62.60;;;;;;;;;;5056447;28;20084;-61
2023/09/27 03:15:31;;;;;;;100.07;62.67;;;;;;;;;;5071451;28;20041;-61
2023/09/27 03:17:57;;;;;;;110.07;62.20;;;;;;;;;;5071392;28;20128;-62
2023/09/27 03:20:24;;;;;;;93.30;60.33;;;;;;;;;;5071358;28;20044;-61
2023/09/27 03:22:50;;;;;;;89.67;59.00;;;;;;;;;;5070158;28;20044;-61
2023/09/27 03:25:19;;;;;;;102.80;63.13;;;;;;;;;;5069506;28;20367;-64
2023/09/27 03:27:45;;;;;;;82.50;56.20;;;;;;;;;;5068862;28;20155;-61
2023/09/27 03:30:11;;;;;;;100.17;61.73;;;;;;;;;;5071266;28;20403;-61
2023/09/27 03:32:37;;;;;;;98.37;61.43;;;;;;;;;;5070027;28;20347;-61
2023/09/27 03:35:04;;;;;;;112.13;62.83;;;;;;;;;;5070882;28;20592;-61
2023/09/27 03:37:34;;;;;;;80.00;55.73;;;;;;;;;;5070511;28;20059;-61
2023/09/27 03:40:00;;;;;;;75.63;53.30;;;;;;;;;;5070407;28;20052;-61
2023/09/27 03:42:26;;;;;;;79.23;54.23;;;;;;;;;;5069589;28;20048;-61
2023/09/27 03:44:54;;;;;;;78.93;57.23;;;;;;;;;;5070368;28;20052;-61
2023/09/27 03:47:20;;;;;;;90.87;60.87;;;;;;;;;;5070631;28;20502;-62
2023/09/27 03:49:46;;;;;;;102.63;66.03;;;;;;;;;;5070398;28;20059;-61
2023/09/27 03:52:13;;;;;;;83.87;56.33;;;;;;;;;;5070312;28;20491;-61
2023/09/27 03:54:39;;;;;;;91.27;61.40;;;;;;;;;;5069561;28;20119;-62
2023/09/27 03:57:05;;;;;;;94.70;63.53;;;;;;;;;;5070770;28;20493;-61
2023/09/27 03:59:31;;;;;;;110.87;67.30;;;;;;;;;;5070419;28;20513;-61
2023/09/27 04:01:57;;;;;;;96.90;62.40;;;;;;;;;;5069964;28;20040;-61
2023/09/27 04:04:24;;;;;;;101.63;65.93;;;;;;;;;;5054823;28;20507;-61
2023/09/27 04:06:50;;;;;;;95.00;60.97;;;;;;;;;;5050494;28;20053;-61
2023/09/27 04:09:16;;;;;;;90.47;58.90;;;;;;;;;;5050267;28;20056;-61
2023/09/27 04:11:42;;;;;;;127.50;71.20;;;;;;;;;;5056725;28;20048;-61
2023/09/27 04:14:08;;;;;;;117.37;72.00;;;;;;;;;;5070290;28;20040;-61
2023/09/27 04:16:34;;;;;;;123.40;70.47;;;;;;;;;;5067566;28;20040;-61
2023/09/27 04:19:00;;;;;;;106.87;68.20;;;;;;;;;;5070040;28;20040;-61
2023/09/27 04:21:26;;;;;;;103.33;67.60;;;;;;;;;;5052152;28;20049;-61
2023/09/27 04:23:56;;;;;;;95.83;63.67;;;;;;;;;;5050113;28;20136;-61
2023/09/27 04:26:23;;;;;;;94.40;64.73;;;;;;;;;;5050157;28;20068;-61
2023/09/27 04:28:50;;;;;;;111.47;66.87;;;;;;;;;;5049505;28;20041;-61
2023/09/27 04:31:16;;;;;;;141.67;72.80;;;;;;;;;;5063749;28;20055;-61
2023/09/27 04:33:44;;;;;;;124.20;68.50;;;;;;;;;;5069734;28;20414;-61
2023/09/27 04:36:17;;;;;;;111.03;67.73;;;;;;;;;;5069901;28;20549;-62
2023/09/27 04:38:44;;;;;;;103.68;64.15;;;;;;;;;;5062112;28;20063;-62
2023/09/27 04:41:11;;;;;;;126.00;70.97;;;;;;;;;;5062933;28;20126;-62
2023/09/27 04:43:36;;;;;;;125.17;73.30;;;;;;;;;;5050602;28;20462;-62
2023/09/27 04:46:03;;;;;;;113.23;69.03;;;;;;;;;;5049940;28;20041;-61
2023/09/27 04:48:29;;;;;;;142.07;72.60;;;;;;;;;;5049697;28;20059;-61
2023/09/27 04:50:59;;;;;;;130.70;74.37;;;;;;;;;;5060318;28;20392;-61
2023/09/27 04:53:25;;;;;;;116.80;69.77;;;;;;;;;;5069160;28;20066;-61
2023/09/27 04:55:51;;;;;;;113.33;69.37;;;;;;;;;;5069670;28;20044;-61
2023/09/27 04:58:17;;;;;;;102.47;64.63;;;;;;;;;;5069154;28;20052;-61
2023/09/27 05:00:43;;;;;;;113.23;67.77;;;;;;;;;;5064458;28;20445;-61
2023/09/27 05:03:09;;;;;;;109.77;67.37;;;;;;;;;;5069519;28;20133;-61
2023/09/27 05:05:35;;;;;;;98.87;63.73;;;;;;;;;;5068827;28;20041;-61
2023/09/27 05:08:01;;;;;;;102.27;63.37;;;;;;;;;;5069422;28;20059;-61
2023/09/27 05:10:27;;;;;;;108.50;66.40;;;;;;;;;;5066292;28;20426;-61
2023/09/27 05:12:53;;;;;;;110.93;66.93;;;;;;;;;;5058194;28;20040;-61
2023/09/27 05:15:19;;;;;;;118.93;72.20;;;;;;;;;;5068487;28;20044;-63
2023/09/27 05:17:45;;;;;;;168.30;82.57;;;;;;;;;;5069309;28;20520;-61
2023/09/27 05:20:13;;;;;;;140.03;74.30;;;;;;;;;;5065573;28;20517;-62
2023/09/27 05:22:39;;;;;;;114.57;71.23;;;;;;;;;;5048759;28;20055;-61
2023/09/27 05:25:10;;;;;;;140.70;73.17;;;;;;;;;;5048450;28;20491;-61
2023/09/27 05:27:36;;;;;;;131.10;73.67;;;;;;;;;;5048737;28;20362;-61
2023/09/27 05:30:03;;;;;;;112.93;69.63;;;;;;;;;;5053493;28;20051;-61
2023/09/27 05:32:29;;;;;;;135.43;77.33;;;;;;;;;;5068616;28;20037;-62
2023/09/27 05:34:55;;;;;;;135.60;71.03;;;;;;;;;;5060159;28;20505;-61
2023/09/27 05:37:21;;;;;;;142.60;72.87;;;;;;;;;;5066423;28;20113;-62
2023/09/27 05:39:47;;;;;;;113.67;62.40;;;;;;;;;;5086032;28;20082;-61
2023/09/27 05:42:13;;;;;;;92.83;54.00;;;;;;;;;;5089178;28;20048;-61
2023/09/27 05:44:39;;;;;;;75.63;49.30;;;;;;;;;;5075701;28;20033;-62
2023/09/27 05:47:05;;;;;;;85.33;54.27;;;;;;;;;;5068128;28;20036;-62
2023/09/27 05:49:31;;;;;;;95.67;52.80;;;;;;;;;;5067505;28;20044;-61
2023/09/27 05:51:57;;;;;;;105.43;62.10;;;;;;;;;;5063626;28;20036;-61
2023/09/27 05:54:23;;;;;;;111.40;66.07;;;;;;;;;;5065406;28;20055;-61
2023/09/27 05:56:51;;;;;;;147.47;78.77;;;;;;;;;;5067987;28;20044;-61
2023/09/27 05:59:18;;;;;;;115.57;69.57;;;;;;;;;;5068006;28;20053;-61
2023/09/27 06:01:44;;;;;;;137.20;76.77;;;;;;;;;;5067841;28;20052;-62
2023/09/27 06:04:10;;;;;;;111.20;67.27;;;;;;;;;;5063835;28;20053;-61
2023/09/27 06:06:37;;;;;;;99.53;63.83;;;;;;;;;;5067888;28;20045;-62
2023/09/27 06:09:05;;;;;;;111.67;68.67;;;;;;;;;;5068063;28;20045;-62
2023/09/27 06:11:32;;;;;;;103.27;67.00;;;;;;;;;;5067043;28;20044;-62
2023/09/27 06:13:58;;;;;;;114.57;70.37;;;;;;;;;;5064850;28;20049;-61
2023/09/27 06:16:24;;;;;;;108.43;72.03;;;;;;;;;;5067659;28;20056;-63
2023/09/27 06:18:51;;;;;;;109.27;70.87;;;;;;;;;;5065967;28;20052;-60
2023/09/27 06:21:17;;;;;;;126.97;77.80;;;;;;;;;;5067779;28;20044;-61
2023/09/27 06:23:43;;;;;;;89.43;61.97;;;;;;;;;;5062435;28;20041;-60
2023/09/27 06:26:09;;;;;;;101.00;66.77;;;;;;;;;;5067574;28;20040;-60
2023/09/27 06:28:37;;;;;;;94.33;66.50;;;;;;;;;;5061726;28;20036;-61
2023/09/27 06:31:06;;;;;;;92.70;65.47;;;;;;;;;;5057896;28;20044;-60
2023/09/27 06:33:32;;;;;;;101.90;67.53;;;;;;;;;;5067981;28;20486;-61
2023/09/27 06:35:59;;;;;;;100.37;65.77;;;;;;;;;;5050854;28;20506;-61
2023/09/27 06:38:25;;;;;;;90.37;65.53;;;;;;;;;;5047505;28;20090;-61
2023/09/27 06:40:51;;;;;;;93.37;66.50;;;;;;;;;;5047451;28;20461;-61
2023/09/27 06:43:17;;;;;;;93.87;64.10;;;;;;;;;;5047351;28;20050;-61
2023/09/27 06:45:43;;;;;;;86.13;62.07;;;;;;;;;;5047586;28;20037;-61
2023/09/27 06:48:09;;;;;;;77.50;57.27;;;;;;;;;;5047371;28;20101;-61
2023/09/27 06:50:36;;;;;;;109.63;71.60;;;;;;;;;;5047604;28;20045;-61
2023/09/27 06:53:02;;;;;;;93.87;62.87;;;;;;;;;;5054415;28;20120;-61
2023/09/27 06:55:28;;;;;;;90.07;62.97;;;;;;;;;;5067287;28;20525;-61
2023/09/27 06:57:54;;;;;;;101.27;69.37;;;;;;;;;;5058223;28;20041;-60
2023/09/27 07:00:24;;;;;;;97.30;68.83;;;;;;;;;;5048451;28;20049;-61
2023/09/27 07:02:50;;;;;;;74.73;56.20;;;;;;;;;;5067233;28;20064;-61
2023/09/27 07:05:16;;;;;;;75.17;57.00;;;;;;;;;;5054040;28;20049;-61
2023/09/27 07:07:43;;;;;;;75.07;55.67;;;;;;;;;;5047263;28;20049;-61
2023/09/27 07:10:09;;;;;;;77.00;57.67;;;;;;;;;;5047115;28;20060;-60
2023/09/27 07:12:36;;;;;;;76.20;56.20;;;;;;;;;;5046746;28;20435;-61
2023/09/27 07:15:04;;;;;;;70.93;53.70;;;;;;;;;;5047673;28;20049;-61
2023/09/27 07:17:31;;;;;;;67.27;52.37;;;;;;;;;;5046627;28;20423;-60
2023/09/27 07:19:57;;;;;;;71.63;54.93;;;;;;;;;;5046401;28;20041;-61
2023/09/27 07:22:23;;;;;;;61.90;49.20;;;;;;;;;;5046513;28;20060;-61
2023/09/27 07:24:49;;;;;;;57.20;46.97;;;;;;;;;;5050709;28;20048;-60
2023/09/27 07:27:15;;;;;;;60.57;47.77;;;;;;;;;;5050753;28;20135;-61
2023/09/27 07:29:41;;;;;;;54.73;45.27;;;;;;;;;;5050536;28;20045;-61
2023/09/27 07:32:07;;;;;;;53.70;43.67;;;;;;;;;;5050611;28;20044;-60
2023/09/27 07:34:33;;;;;;;61.70;48.40;;;;;;;;;;5049260;28;20041;-61
2023/09/27 07:37:00;;;;;;;56.43;46.70;;;;;;;;;;5050312;28;20063;-60
2023/09/27 07:39:27;;;;;;;53.60;43.70;;;;;;;;;;5050371;28;20107;-61
2023/09/27 07:41:53;;;;;;;54.47;43.53;;;;;;;;;;5050465;28;20080;-61
2023/09/27 07:44:19;;;;;;;47.77;42.53;;;;;;;;;;5050426;28;20478;-61
2023/09/27 07:46:45;;;;;;;50.20;41.00;;;;;;;;;;5050248;28;20048;-61
2023/09/27 07:49:11;;;;;;;51.00;41.00;;;;;;;;;;5049679;28;20053;-61
2023/09/27 07:51:38;;;;;;;49.43;43.07;;;;;;;;;;5050495;28;20366;-61
2023/09/27 07:54:07;;;;;;;48.53;40.13;;;;;;;;;;5050488;28;20136;-61
2023/09/27 07:56:39;;;;;;;42.40;37.80;;;;;;;;;;5050065;28;20048;-60
2023/09/27 07:59:05;;;;;;;48.90;39.33;;;;;;;;;;5050056;28;20525;-61
2023/09/27 08:01:33;;;;;;;45.83;36.73;;;;;;;;;;5049975;28;20048;-61
2023/09/27 08:04:06;;;;;;;43.60;38.47;;;;;;;;;;5050318;28;20530;-61
2023/09/27 08:06:33;;;;;;;42.80;35.95;;;;;;;;;;5050078;28;20499;-61
2023/09/27 08:08:59;;;;;;;41.83;37.53;;;;;;;;;;5048678;28;20045;-61
2023/09/27 08:11:25;;;;;;;44.23;36.80;;;;;;;;;;5049502;28;20060;-61
2023/09/27 08:13:51;;;;;;;37.93;34.10;;;;;;;;;;5049622;28;20461;-61
2023/09/27 08:16:17;;;;;;;38.97;34.93;;;;;;;;;;5050061;28;20418;-61
2023/09/27 08:18:43;;;;;;;39.50;35.37;;;;;;;;;;5049633;28;20511;-61
2023/09/27 08:21:12;;;;;;;38.23;33.90;;;;;;;;;;5049555;28;20087;-61
2023/09/27 08:23:38;;;;;;;35.20;30.67;;;;;;;;;;5049166;28;20170;-60
2023/09/27 08:26:04;;;;;;;33.53;30.03;;;;;;;;;;5049852;28;20454;-60
2023/09/27 08:28:30;;;;;;;33.57;29.90;;;;;;;;;;5049508;28;20052;-61
2023/09/27 08:30:59;;;;;;;34.93;31.23;;;;;;;;;;5049509;28;20099;-61
2023/09/27 08:33:25;;;;;;;31.50;28.27;;;;;;;;;;5049438;28;20422;-61
2023/09/27 08:35:55;;;;;;;33.43;30.00;;;;;;;;;;5048454;28;20045;-61
2023/09/27 08:38:21;;;;;;;30.93;27.73;;;;;;;;;;5048816;28;20135;-60
2023/09/27 08:40:48;;;;;;;31.03;27.73;;;;;;;;;;5049419;28;20057;-60
2023/09/27 08:43:17;;;;;;;28.73;25.83;;;;;;;;;;5049167;28;20052;-61
2023/09/27 08:45:45;;;;;;;25.90;23.30;;;;;;;;;;5049068;28;20041;-61
2023/09/27 08:48:16;;;;;;;25.57;22.10;;;;;;;;;;5049257;28;20078;-61
2023/09/27 08:50:43;;;;;;;23.40;21.10;;;;;;;;;;5048762;28;20782;-61
2023/09/27 08:53:10;;;;;;;25.00;21.17;;;;;;;;;;5049104;28;20053;-61
2023/09/27 08:55:38;;;;;;;24.93;22.43;;;;;;;;;;5049015;28;20044;-61
2023/09/27 08:58:06;;;;;;;26.73;23.97;;;;;;;;;;5049324;28;20045;-61
2023/09/27 09:00:32;;;;;;;25.93;23.23;;;;;;;;;;5049380;28;20057;-61
2023/09/27 09:03:00;;;;;;;25.50;22.80;;;;;;;;;;5048622;28;20388;-61
2023/09/27 09:05:27;;;;;;;23.17;19.67;;;;;;;;;;5048767;28;20507;-61
2023/09/27 09:07:55;;;;;;;23.70;21.03;;;;;;;;;;5049080;28;20080;-61
2023/09/27 09:10:22;;;;;;;22.63;20.30;;;;;;;;;;5049057;28;20063;-61
2023/09/27 09:12:49;;;;;;;23.17;18.90;;;;;;;;;;5048153;28;20048;-61
2023/09/27 09:15:40;;;;;;;22.27;18.30;;;;;;;;;;5048759;28;20045;-61
2023/09/27 09:18:06;;;;;;;19.80;17.63;;;;;;;;;;5048515;28;20040;-61
2023/09/27 09:20:48;;;;;;;19.43;17.33;;;;;;;;;;5048640;28;20059;-61
2023/09/27 09:23:27;;;;;;;18.10;16.20;;;;;;;;;;5048328;28;20419;-61
2023/09/27 09:25:56;;;;;;;19.13;16.50;;;;;;;;;;5048468;28;20080;-61
2023/09/27 09:28:22;;;;;;;20.07;17.93;;;;;;;;;;5047927;28;20505;-61
2023/09/27 09:30:49;;;;;;;18.73;16.03;;;;;;;;;;5048290;28;20049;-61
2023/09/27 09:33:20;;;;;;;19.07;17.20;;;;;;;;;;5048381;28;20590;-61
2023/09/27 09:35:46;;;;;;;19.37;16.27;;;;;;;;;;5048246;28;20118;-61
2023/09/27 09:38:13;;;;;;;19.27;17.17;;;;;;;;;;5048051;28;20061;-61
2023/09/27 09:40:52;;;;;;;22.33;18.13;;;;;;;;;;5047654;28;20041;-61
2023/09/27 09:43:28;;;;;;;20.67;18.70;;;;;;;;;;5048216;28;20128;-61
2023/09/27 09:45:54;;;;;;;21.50;19.23;;;;;;;;;;5047970;28;20052;-61
2023/09/27 09:48:23;;;;;;;22.00;18.37;;;;;;;;;;5047585;28;20051;-61
2023/09/27 09:50:49;;;;;;;23.87;19.10;;;;;;;;;;5047928;28;20136;-61
2023/09/27 09:53:17;;;;;;;19.93;16.83;;;;;;;;;;5047852;28;20052;-61
2023/09/27 09:55:43;;;;;;;18.67;15.90;;;;;;;;;;5047957;28;20049;-61
2023/09/27 09:58:29;;;;;;;20.77;17.27;;;;;;;;;;5048076;28;20090;-61
2023/09/27 10:00:58;;;;;;;16.57;14.90;;;;;;;;;;5047156;28;20500;-61
2023/09/27 10:03:27;;;;;;;17.20;14.80;;;;;;;;;;5048183;28;20083;-62
2023/09/27 10:05:53;;;;;;;16.55;14.88;;;;;;;;;;5048250;28;20045;-61
2023/09/27 10:08:20;;;;;;;19.25;15.25;;;;;;;;;;5047951;28;20435;-61
2023/09/27 10:10:47;;;;;;;15.65;14.13;;;;;;;;;;5047607;28;20094;-61
2023/09/27 10:13:13;;;;;;;15.98;14.13;;;;;;;;;;5047428;28;20051;-63
2023/09/27 10:15:40;;;;;;;19.02;14.32;;;;;;;;;;5047333;28;20076;-61
2023/09/27 10:18:22;;;;;;;18.15;15.90;;;;;;;;;;5047538;28;20506;-62
2023/09/27 10:21:03;;;;;;;18.37;16.03;;;;;;;;;;5047794;28;20149;-61
2023/09/27 10:23:52;;;;;;;20.43;16.53;;;;;;;;;;5047643;28;20507;-61
2023/09/27 10:26:31;;;;;;;19.17;17.23;;;;;;;;;;5047334;28;20045;-61
2023/09/27 10:29:03;;;;;;;20.85;17.95;;;;;;;;;;5047590;28;20368;-60
2023/09/27 10:31:37;;;;;;;18.35;16.50;;;;;;;;;;5047566;28;20081;-61
2023/09/27 10:34:04;;;;;;;19.77;17.43;;;;;;;;;;5046998;28;20083;-60
2023/09/27 10:36:31;;;;;;;19.67;17.73;;;;;;;;;;5047178;28;20076;-61
2023/09/27 10:38:57;;;;;;;21.40;18.23;;;;;;;;;;5047622;28;20049;-60
2023/09/27 10:41:32;;;;;;;19.20;17.23;;;;;;;;;;5047332;28;20103;-60
2023/09/27 10:43:58;;;;;;;17.83;15.48;;;;;;;;;;5047920;28;20057;-61
2023/09/27 10:46:24;;;;;;;19.85;14.88;;;;;;;;;;5047266;28;20136;-61
2023/09/27 10:48:54;;;;;;;23.40;17.23;;;;;;;;;;5046858;28;20124;-61
2023/09/27 10:51:21;;;;;;;17.15;15.32;;;;;;;;;;5047411;28;20483;-60
2023/09/27 10:53:48;;;;;;;19.85;16.95;;;;;;;;;;5047465;28;20051;-61
2023/09/27 10:56:15;;;;;;;18.77;14.93;;;;;;;;;;5047295;28;20053;-61
2023/09/27 10:58:45;;;;;;;16.75;14.65;;;;;;;;;;5049598;28;20091;-60
2023/09/27 11:01:11;;;;;;;18.98;15.50;;;;;;;;;;5051195;28;20095;-60
2023/09/27 11:03:38;;;;;;;15.93;14.43;;;;;;;;;;5052658;28;20053;-60
2023/09/27 11:06:10;;;;;;;16.45;14.75;;;;;;;;;;5054451;28;20033;-60
2023/09/27 11:08:36;;;;;;;17.25;15.05;;;;;;;;;;5067328;28;20052;-61
2023/09/27 11:11:02;;;;;;;17.77;15.35;;;;;;;;;;5072547;28;20891;-61
2023/09/27 11:13:29;;;;;;;18.73;14.98;;;;;;;;;;5058248;28;20099;-60
2023/09/27 11:16:06;;;;;;;17.95;16.05;;;;;;;;;;5061506;28;20103;-61
2023/09/27 11:18:36;;;;;;;16.77;15.05;;;;;;;;;;5057822;28;20159;-61
2023/09/27 11:21:08;;;;;;;19.92;15.15;;;;;;;;;;5071212;28;20054;-61
2023/09/27 11:23:34;;;;;;;;;;;;;;;;;;5071063;28;20445;-60
2023/09/27 11:26:04;;;;;;;20.63;16.20;;;;;;;;;;5071159;28;19966;-60
2023/09/27 11:28:31;;;;;;;18.98;16.77;;;;;;;;;;5070180;28;20133;-60
2023/09/27 11:30:57;;;;;;;18.13;16.17;;;;;;;;;;5070381;28;20048;-61
2023/09/27 11:33:30;;;;;;;16.52;14.93;;;;;;;;;;5070770;28;20044;-61
2023/09/27 11:35:56;;;;;;;19.50;14.80;;;;;;;;;;5069901;28;20215;-60
2023/09/27 11:38:26;;;;;;;17.15;15.57;;;;;;;;;;5051936;28;20144;-61
2023/09/27 11:40:53;;;;;;;17.52;15.65;;;;;;;;;;5050455;28;20503;-60
2023/09/27 11:43:20;;;;;;;21.52;16.65;;;;;;;;;;5050222;28;20059;-60
2023/09/27 11:45:48;;;;;;;20.00;17.27;;;;;;;;;;5050529;28;20423;-60
2023/09/27 11:48:14;;;;;;;17.80;15.13;;;;;;;;;;5050785;28;20049;-60
2023/09/27 11:50:40;;;;;;;19.50;16.55;;;;;;;;;;5050321;28;20053;-60
2023/09/27 11:53:06;;;;;;;18.33;16.40;;;;;;;;;;5059174;28;20385;-60
2023/09/27 11:55:32;;;;;;;20.25;17.75;;;;;;;;;;5070886;28;20044;-60
2023/09/27 11:57:59;;;;;;;16.88;14.98;;;;;;;;;;5054840;28;20052;-61
2023/09/27 12:00:25;;;;;;;21.67;16.63;;;;;;;;;;5049849;28;20056;-60
2023/09/27 12:02:52;;;;;;;18.20;15.90;;;;;;;;;;5049485;28;20415;-60
2023/09/27 12:05:18;;;;;;;19.60;17.10;;;;;;;;;;5050026;28;20063;-61
2023/09/27 12:07:44;;;;;;;18.75;16.83;;;;;;;;;;5049827;28;20057;-61
2023/09/27 12:10:11;;;;;;;17.75;15.95;;;;;;;;;;5050693;28;20047;-61
2023/09/27 12:12:39;;;;;;;26.05;18.17;;;;;;;;;;5049694;28;20041;-60
2023/09/27 12:15:07;;;;;;;19.15;16.98;;;;;;;;;;5049243;28;20434;-60
2023/09/27 12:17:32;;;;;;;18.05;16.25;;;;;;;;;;5050112;28;20045;-60
2023/09/27 12:19:58;;;;;;;18.08;16.17;;;;;;;;;;5049507;28;20106;-60
2023/09/27 12:22:25;;;;;;;18.63;15.43;;;;;;;;;;5049596;28;20511;-60
2023/09/27 12:24:51;;;;;;;18.05;16.35;;;;;;;;;;5050148;28;20123;-60
2023/09/27 12:27:17;;;;;;;17.45;14.88;;;;;;;;;;5053947;28;20048;-61
2023/09/27 12:29:43;;;;;;;16.63;14.98;;;;;;;;;;5049758;28;20045;-60
2023/09/27 12:32:10;;;;;;;14.88;13.27;;;;;;;;;;5062395;28;20048;-60
2023/09/27 12:34:36;;;;;;;12.40;10.85;;;;;;;;;;5069101;28;20055;-60
2023/09/27 12:37:02;;;;;;;11.15;9.63;;;;;;;;;;5062864;28;20102;-61
2023/09/27 12:39:28;;;;;;;10.10;8.20;;;;;;;;;;5062233;28;20404;-60
2023/09/27 12:41:58;;;;;;;9.70;7.63;;;;;;;;;;5068707;28;20053;-60
2023/09/27 12:44:23;;;;;;;9.95;7.22;;;;;;;;;;5067155;28;20506;-60
2023/09/27 12:46:49;;;;;;;7.97;5.97;;;;;;;;;;5069397;28;20125;-61
2023/09/27 12:49:15;;;;;;;8.02;5.20;;;;;;;;;;5068700;28;20365;-61
2023/09/27 12:51:41;;;;;;;7.65;5.10;;;;;;;;;;5067937;28;20391;-61
2023/09/27 12:54:08;;;;;;;6.10;5.00;;;;;;;;;;5067600;28;20076;-60
2023/09/27 12:56:34;;;;;;;7.72;6.28;;;;;;;;;;5054447;28;20452;-60
2023/09/27 12:59:00;;;;;;;8.73;5.47;;;;;;;;;;5063316;28;20095;-60
2023/09/27 13:01:26;;;;;;;6.63;5.45;;;;;;;;;;5066490;28;20522;-60
2023/09/27 13:03:52;;;;;;;8.90;6.45;;;;;;;;;;5054251;28;20037;-60
2023/09/27 13:06:18;;;;;;;8.95;7.28;;;;;;;;;;5064131;28;20080;-60
2023/09/27 13:08:44;;;;;;;8.27;5.90;;;;;;;;;;5067028;28;20080;-60
2023/09/27 13:11:10;;;;;;;10.13;6.20;;;;;;;;;;5067135;28;20048;-60
2023/09/27 13:13:36;;;;;;;8.57;6.75;;;;;;;;;;5067628;28;20060;-60
2023/09/27 13:16:02;;;;;;;8.88;6.30;;;;;;;;;;5066827;28;20040;-60
2023/09/27 13:18:28;;;;;;;8.18;6.97;;;;;;;;;;5068409;28;20041;-60
2023/09/27 13:20:54;;;;;;;8.77;7.10;;;;;;;;;;5067826;28;20043;-60
2023/09/27 13:23:20;;;;;;;8.52;6.95;;;;;;;;;;5058600;28;20081;-60
2023/09/27 13:25:51;;;;;;;8.75;5.90;;;;;;;;;;5067935;28;20056;-60
2023/09/27 13:28:17;;;;;;;9.98;6.35;;;;;;;;;;5063245;28;20081;-60
2023/09/27 13:30:43;;;;;;;7.68;5.63;;;;;;;;;;5054020;28;20579;-60
2023/09/27 13:33:09;;;;;;;7.78;5.50;;;;;;;;;;5067262;28;20040;-60
2023/09/27 13:35:35;;;;;;;9.07;5.95;;;;;;;;;;5067298;28;20060;-60
2023/09/27 13:38:05;;;;;;;8.60;5.05;;;;;;;;;;5066894;28;20048;-60
2023/09/27 13:40:31;;;;;;;7.25;5.05;;;;;;;;;;5067491;28;20063;-60
2023/09/27 13:42:57;;;;;;;8.35;4.95;;;;;;;;;;5066768;28;20052;-60
2023/09/27 13:45:23;;;;;;;6.78;5.50;;;;;;;;;;5066918;28;20455;-60
2023/09/27 13:47:49;;;;;;;7.03;4.90;;;;;;;;;;5068014;28;20124;-60
2023/09/27 13:50:15;;;;;;;8.30;5.50;;;;;;;;;;5068236;28;20155;-60
2023/09/27 13:52:41;;;;;;;9.88;5.43;;;;;;;;;;5063321;28;20041;-60
2023/09/27 13:55:11;;;;;;;7.40;4.97;;;;;;;;;;5047544;28;20053;-60
2023/09/27 13:57:40;;;;;;;6.00;4.18;;;;;;;;;;5048003;28;20057;-60
2023/09/27 14:00:08;;;;;;;6.68;4.10;;;;;;;;;;5047936;28;20049;-60
2023/09/27 14:02:35;;;;;;;8.10;4.55;;;;;;;;;;5047780;28;20068;-60
2023/09/27 14:05:01;;;;;;;8.35;5.30;;;;;;;;;;5048661;28;20037;-60
2023/09/27 14:07:27;;;;;;;8.30;5.13;;;;;;;;;;5048159;28;20453;-61
2023/09/27 14:09:53;;;;;;;6.63;4.78;;;;;;;;;;5048211;28;20048;-61
2023/09/27 14:12:20;;;;;;;9.50;4.80;;;;;;;;;;5047860;28;20384;-61
2023/09/27 14:14:46;;;;;;;7.78;4.75;;;;;;;;;;5055032;28;20048;-60
2023/09/27 14:17:12;;;;;;;6.65;5.15;;;;;;;;;;5067413;28;20356;-61